Time;durP1;ratioP1;P1;durP2;ratioP2;P2;SDS_P1;SDS_P2;PMS_P1;PMS_P2;Temp;Humidity;BMP_temperature;BMP_pressure;BME280_temperature;BME280_humidity;BME280_pressure;Samples;Min_cycle;Max_cycle;Signal;HPM_P1;HPM_P2
2022/08/06 00:01:28;;;;;;;3.67;0.20;;;17.70;99.90;;;;;;10269350;28;20057;-58
2022/08/06 00:06:31;;;;;;;0.35;0.20;;;17.60;99.90;;;;;;10246782;28;20074;-57
2022/08/06 00:11:34;;;;;;;0.10;0.10;;;17.50;99.90;;;;;;10255564;28;20051;-59
2022/08/06 00:16:39;;;;;;;0.15;0.10;;;17.50;99.90;;;;;;10260611;28;20051;-58
2022/08/06 00:21:43;;;;;;;1.30;0.10;;;17.50;99.90;;;;;;10264846;28;20069;-58
2022/08/06 00:26:46;;;;;;;1.45;0.10;;;17.40;99.90;;;;;;10264531;28;20097;-58
2022/08/06 00:32:06;;;;;;;0.28;0.10;;;17.30;99.90;;;;;;10256029;28;20047;-57
2022/08/06 00:37:12;;;;;;;0.17;0.17;;;17.30;99.90;;;;;;10273607;28;20049;-58
2022/08/06 00:42:19;;;;;;;0.45;0.10;;;17.20;99.90;;;;;;10261295;28;20407;-58
2022/08/06 00:47:21;;;;;;;0.10;0.10;;;17.10;99.90;;;;;;10258642;28;20113;-60
2022/08/06 00:52:41;;;;;;;2.70;0.20;;;17.10;99.90;;;;;;10262089;28;20054;-59
2022/08/06 00:57:44;;;;;;;0.63;0.20;;;17.00;99.90;;;;;;10249311;28;20045;-58
2022/08/06 01:02:46;;;;;;;4.13;0.20;;;16.90;99.90;;;;;;10256400;28;20059;-58
2022/08/06 01:07:54;;;;;;;2.72;0.20;;;16.80;99.90;;;;;;10262586;28;20390;-59
2022/08/06 01:12:56;;;;;;;0.22;0.10;;;16.70;99.90;;;;;;10292205;28;20053;-57
2022/08/06 01:18:07;;;;;;;0.63;0.20;;;16.60;99.90;;;;;;10302726;28;20047;-58
2022/08/06 01:23:21;;;;;;;0.50;0.30;;;16.50;99.90;;;;;;10303044;28;20057;-59
2022/08/06 01:28:30;;;;;;;0.88;0.20;;;16.50;99.90;;;;;;10297311;28;20050;-58
2022/08/06 01:33:47;;;;;;;2.15;0.20;;;16.40;99.90;;;;;;10295786;28;20054;-57
2022/08/06 01:38:52;;;;;;;1.55;0.10;;;16.30;99.90;;;;;;10298557;28;20050;-58
2022/08/06 01:44:03;;;;;;;0.60;0.20;;;16.20;99.90;;;;;;10299681;28;20264;-57
2022/08/06 01:49:24;;;;;;;0.20;0.20;;;16.10;99.90;;;;;;10302478;28;20070;-58
2022/08/06 01:54:49;;;;;;;0.20;0.10;;;15.90;99.90;;;;;;10282344;28;20094;-57
2022/08/06 01:59:55;;;;;;;0.52;0.20;;;15.80;99.90;;;;;;10290017;28;20074;-58
2022/08/06 02:05:00;;;;;;;1.63;0.30;;;15.80;99.90;;;;;;10283677;28;20133;-59
2022/08/06 02:10:13;;;;;;;3.15;0.38;;;15.70;99.90;;;;;;10287219;28;20046;-58
2022/08/06 02:15:23;;;;;;;0.40;0.25;;;15.60;99.90;;;;;;10298181;28;20065;-58
2022/08/06 02:20:50;;;;;;;6.55;0.30;;;15.60;99.90;;;;;;10298067;28;20889;-58
2022/08/06 02:25:55;;;;;;;3.13;0.30;;;15.40;99.90;;;;;;10285706;28;20055;-58
2022/08/06 02:30:58;;;;;;;3.58;0.57;;;15.40;99.90;;;;;;10278492;28;20050;-58
2022/08/06 02:36:32;;;;;;;1.55;0.20;;;15.20;99.90;;;;;;10299332;28;20046;-58
2022/08/06 02:41:40;;;;;;;2.47;0.20;;;15.20;99.90;;;;;;10293280;28;20054;-58
2022/08/06 02:47:04;;;;;;;0.30;0.20;;;15.10;99.90;;;;;;10296217;28;20046;-58
2022/08/06 02:52:28;;;;;;;0.50;0.13;;;15.10;99.90;;;;;;10298659;28;20054;-58
2022/08/06 02:57:40;;;;;;;;;;;15.00;99.90;;;;;;10304215;28;20065;-57
2022/08/06 03:02:56;;;;;;;0.80;0.20;;;15.00;99.90;;;;;;10300324;28;19928;-58
2022/08/06 03:08:00;;;;;;;0.15;0.13;;;14.90;99.90;;;;;;10284843;28;20058;-58
2022/08/06 03:13:05;;;;;;;1.42;0.10;;;14.80;99.90;;;;;;10282968;28;20066;-58
2022/08/06 03:18:13;;;;;;;3.92;0.20;;;14.70;99.90;;;;;;10274618;28;20043;-58
2022/08/06 03:23:17;;;;;;;0.85;0.20;;;14.70;99.90;;;;;;10295844;28;20058;-58
2022/08/06 03:28:23;;;;;;;0.90;0.30;;;14.70;99.90;;;;;;10280426;28;20047;-59
2022/08/06 03:33:25;;;;;;;3.92;0.20;;;14.60;99.90;;;;;;10305468;28;23711;-59
2022/08/06 03:38:58;;;;;;;0.52;0.10;;;14.50;99.90;;;;;;10277854;28;20058;-58
2022/08/06 03:44:02;;;;;;;0.93;0.10;;;14.40;99.90;;;;;;10289890;28;20046;-58
2022/08/06 03:49:13;;;;;;;0.25;0.20;;;14.20;99.90;;;;;;10295168;28;20054;-58
2022/08/06 03:54:19;;;;;;;0.40;0.20;;;14.20;99.90;;;;;;10289307;28;20054;-59
2022/08/06 03:59:34;;;;;;;0.10;0.10;;;14.10;99.90;;;;;;10289359;28;20089;-62
2022/08/06 04:04:46;;;;;;;0.30;0.13;;;14.00;99.90;;;;;;10306812;28;20105;-63
2022/08/06 04:09:49;;;;;;;2.17;0.65;;;14.00;99.90;;;;;;10307328;28;20134;-62
2022/08/06 04:15:03;;;;;;;3.70;0.20;;;14.00;99.90;;;;;;10285326;28;20058;-62
2022/08/06 04:20:10;;;;;;;;;;;14.00;99.90;;;;;;10294260;28;20070;-61
2022/08/06 04:25:12;;;;;;;1.17;0.30;;;14.00;99.90;;;;;;10312169;28;19921;-62
2022/08/06 04:30:15;;;;;;;0.52;0.10;;;13.90;99.90;;;;;;10308095;28;20042;-62
2022/08/06 04:35:17;;;;;;;0.50;0.20;;;13.90;99.90;;;;;;10300846;28;20039;-62
2022/08/06 04:40:40;;;;;;;4.65;0.52;;;14.00;99.90;;;;;;10296523;28;20120;-62
2022/08/06 04:45:54;;;;;;;0.20;0.10;;;14.00;99.90;;;;;;10299821;28;20056;-61
2022/08/06 04:51:15;;;;;;;0.20;0.10;;;14.00;99.90;;;;;;10292875;28;20061;-64
2022/08/06 04:56:37;;;;;;;0.65;0.30;;;14.10;99.90;;;;;;10290760;28;20093;-63
2022/08/06 05:01:51;;;;;;;2.92;0.20;;;14.10;99.90;;;;;;10311805;28;20060;-61
2022/08/06 05:07:28;;;;;;;0.22;0.13;;;14.10;99.90;;;;;;10314035;28;20050;-61
2022/08/06 05:12:55;;;;;;;1.60;0.10;;;14.30;99.90;;;;;;10296511;28;20113;-61
2022/08/06 05:18:03;;;;;;;0.88;0.10;;;14.30;99.90;;;;;;10310685;28;20831;-61
2022/08/06 05:23:11;;;;;;;0.88;0.17;;;14.40;99.90;;;;;;10298243;28;20054;-63
2022/08/06 05:28:21;;;;;;;0.90;0.10;;;14.60;99.90;;;;;;10300539;28;20051;-63
2022/08/06 05:33:31;;;;;;;0.20;0.20;;;14.80;99.90;;;;;;10290609;28;20051;-61
2022/08/06 05:38:40;;;;;;;0.68;0.10;;;14.90;99.90;;;;;;10300366;28;20053;-62
2022/08/06 05:44:00;;;;;;;2.17;0.10;;;15.10;99.90;;;;;;10300922;28;20101;-62
2022/08/06 05:49:08;;;;;;;1.10;0.20;;;15.20;99.90;;;;;;10290635;28;20433;-64
2022/08/06 05:54:52;;;;;;;2.10;0.30;;;15.50;99.90;;;;;;10281901;28;20132;-63
2022/08/06 06:00:00;;;;;;;1.30;0.10;;;15.70;99.90;;;;;;10290459;28;22622;-63
2022/08/06 06:05:07;;;;;;;0.30;0.20;;;15.80;99.90;;;;;;10290182;28;20047;-64
2022/08/06 06:10:29;;;;;;;0.43;0.10;;;16.00;99.90;;;;;;10300040;28;20480;-64
2022/08/06 06:15:47;;;;;;;0.82;0.20;;;16.10;99.90;;;;;;10296910;28;20445;-64
2022/08/06 06:21:15;;;;;;;0.60;0.10;;;16.20;99.90;;;;;;10286762;28;20379;-64
2022/08/06 06:26:35;;;;;;;0.20;0.20;;;16.40;99.90;;;;;;10282880;28;20489;-64
2022/08/06 06:32:04;;;;;;;1.58;0.20;;;16.40;99.90;;;;;;10295730;28;20061;-64
2022/08/06 06:37:43;;;;;;;3.97;0.20;;;16.50;99.90;;;;;;10295176;28;20133;-64
2022/08/06 06:43:15;;;;;;;1.65;0.20;;;16.60;99.90;;;;;;10301922;28;20073;-64
2022/08/06 06:48:22;;;;;;;1.58;0.20;;;16.70;99.90;;;;;;10301523;28;20104;-64
2022/08/06 06:53:35;;;;;;;0.20;0.17;;;16.70;99.90;;;;;;10509842;27;20501;-62
2022/08/06 06:59:02;;;;;;;0.95;0.30;;;16.90;99.90;;;;;;10493898;28;20071;-63
2022/08/06 07:04:09;;;;;;;0.20;0.20;;;17.00;99.90;;;;;;10485382;28;20036;-63
2022/08/06 07:09:18;;;;;;;2.10;0.20;;;17.10;99.90;;;;;;10482605;28;20048;-63
2022/08/06 07:14:41;;;;;;;4.30;0.10;;;17.20;99.90;;;;;;10487080;28;20068;-63
2022/08/06 07:19:43;;;;;;;1.80;0.10;;;17.40;99.90;;;;;;10487363;28;20044;-63
2022/08/06 07:24:50;;;;;;;1.40;0.22;;;17.40;99.90;;;;;;10487699;28;20045;-63
2022/08/06 07:29:59;;;;;;;0.30;0.10;;;17.60;99.90;;;;;;10486882;28;20098;-62
2022/08/06 07:35:04;;;;;;;3.38;0.20;;;17.60;99.90;;;;;;10487764;28;20051;-63
2022/08/06 07:40:21;;;;;;;2.60;0.20;;;17.70;99.90;;;;;;10497415;28;20048;-64
2022/08/06 07:45:27;;;;;;;4.80;0.30;;;17.80;99.90;;;;;;10487326;28;20048;-63
2022/08/06 07:50:51;;;;;;;0.90;0.20;;;17.90;99.90;;;;;;10529222;28;20141;-63
2022/08/06 07:55:59;;;;;;;0.95;0.10;;;18.20;99.90;;;;;;10531916;28;20050;-63
2022/08/06 08:01:01;;;;;;;0.75;0.15;;;18.30;99.90;;;;;;10523972;28;20177;-63
2022/08/06 08:06:17;;;;;;;0.52;0.20;;;18.50;99.90;;;;;;10496077;28;20055;-63
2022/08/06 08:11:23;;;;;;;;;;;18.70;99.90;;;;;;10501151;28;20052;-61
2022/08/06 08:16:45;;;;;;;0.63;0.10;;;18.90;99.90;;;;;;10494521;28;20013;-61
2022/08/06 08:21:56;;;;;;;2.55;0.10;;;19.10;99.90;;;;;;10487540;28;20505;-61
2022/08/06 08:26:58;;;;;;;2.83;0.10;;;19.10;99.90;;;;;;10499034;28;20098;-61
2022/08/06 08:32:13;;;;;;;0.10;0.00;;;19.40;99.90;;;;;;10494679;28;20174;-61
2022/08/06 08:37:17;;;;;;;0.15;0.13;;;19.50;99.90;;;;;;10501307;28;20036;-61
2022/08/06 08:42:28;;;;;;;2.78;0.20;;;19.70;99.90;;;;;;10499505;27;20040;-61
2022/08/06 08:47:34;;;;;;;0.88;0.05;;;19.80;99.90;;;;;;10493451;28;20044;-61
2022/08/06 08:53:05;;;;;;;1.35;0.10;;;19.90;99.90;;;;;;10497876;28;20743;-62
2022/08/06 08:58:07;;;;;;;0.10;0.00;;;20.00;99.90;;;;;;10500634;28;20048;-61
2022/08/06 09:03:29;;;;;;;2.85;0.10;;;19.80;99.90;;;;;;10495813;28;20129;-61
2022/08/06 09:08:33;;;;;;;0.28;0.10;;;19.90;99.90;;;;;;10509161;28;20055;-61
2022/08/06 09:13:55;;;;;;;1.45;0.10;;;19.90;99.90;;;;;;10492527;28;20468;-61
2022/08/06 09:19:03;;;;;;;0.83;0.10;;;19.70;99.90;;;;;;10489584;28;20056;-61
2022/08/06 09:24:11;;;;;;;1.33;0.10;;;19.80;99.90;;;;;;10489247;28;20048;-62
2022/08/06 09:29:21;;;;;;;2.00;0.20;;;19.90;98.80;;;;;;10487498;28;20063;-60
2022/08/06 09:34:37;;;;;;;0.45;0.10;;;20.00;99.40;;;;;;10507926;28;20491;-61
2022/08/06 09:39:44;;;;;;;1.63;0.10;;;20.30;99.00;;;;;;10493276;28;20368;-61
2022/08/06 09:45:09;;;;;;;2.60;0.10;;;20.30;99.00;;;;;;10488923;28;20059;-60
2022/08/06 09:50:41;;;;;;;1.23;0.10;;;20.30;99.10;;;;;;10490995;28;20044;-61
2022/08/06 09:55:45;;;;;;;0.10;0.10;;;20.50;98.80;;;;;;10496108;28;20110;-61
2022/08/06 10:00:47;;;;;;;0.80;0.10;;;20.70;97.30;;;;;;10496997;28;20155;-61
2022/08/06 10:06:06;;;;;;;1.02;0.10;;;20.90;97.30;;;;;;10494457;28;20044;-61
2022/08/06 10:11:15;;;;;;;0.47;0.00;;;21.20;96.80;;;;;;10490268;28;20069;-61
2022/08/06 10:16:29;;;;;;;0.00;0.00;;;21.40;96.60;;;;;;10498706;28;20124;-61
2022/08/06 10:21:33;;;;;;;0.47;0.10;;;21.40;95.80;;;;;;10497886;28;20048;-61
2022/08/06 10:26:48;;;;;;;3.97;0.10;;;21.70;95.00;;;;;;10487328;28;20044;-61
2022/08/06 10:31:53;;;;;;;0.22;0.00;;;21.70;93.70;;;;;;10493250;28;20105;-61
2022/08/06 10:36:58;;;;;;;0.10;0.08;;;21.70;93.10;;;;;;10497736;28;20052;-61
2022/08/06 10:42:02;;;;;;;2.40;0.10;;;22.10;93.60;;;;;;10490359;28;20043;-62
2022/08/06 10:47:19;;;;;;;2.72;0.20;;;22.50;93.00;;;;;;10495079;28;20032;-62
2022/08/06 10:52:42;;;;;;;3.15;0.10;;;22.90;89.50;;;;;;10491687;28;20052;-61
2022/08/06 10:57:47;;;;;;;1.27;0.20;;;23.60;90.30;;;;;;10496707;28;20132;-61
2022/08/06 11:03:06;;;;;;;0.40;0.10;;;23.40;88.00;;;;;;10491038;28;20130;-61
2022/08/06 11:08:42;;;;;;;3.95;0.10;;;23.70;82.60;;;;;;10488767;28;20081;-61
2022/08/06 11:14:08;;;;;;;0.10;0.00;;;24.20;81.60;;;;;;10494475;28;20128;-61
2022/08/06 11:19:40;;;;;;;0.52;0.00;;;24.00;80.50;;;;;;10488833;28;20044;-61
2022/08/06 11:24:51;;;;;;;1.35;0.10;;;24.10;79.90;;;;;;10492218;28;20127;-61
2022/08/06 11:30:12;;;;;;;;;;;24.40;80.40;;;;;;10494063;28;20394;-61
2022/08/06 11:35:32;;;;;;;0.35;0.00;;;24.70;77.30;;;;;;10491398;28;19956;-61
2022/08/06 11:40:57;;;;;;;1.77;0.00;;;24.80;77.30;;;;;;10503238;28;20497;-61
2022/08/06 11:46:22;;;;;;;0.00;0.00;;;25.10;71.90;;;;;;10501299;28;20036;-61
2022/08/06 11:51:47;;;;;;;0.73;0.10;;;25.00;69.00;;;;;;10500907;28;20052;-61
2022/08/06 11:57:07;;;;;;;0.65;0.00;;;24.90;68.40;;;;;;10503319;28;20044;-61
2022/08/06 12:02:39;;;;;;;0.10;0.00;;;25.20;67.10;;;;;;10496870;28;20131;-62
2022/08/06 12:07:49;;;;;;;0.50;0.00;;;25.30;66.00;;;;;;10510700;28;20406;-61
2022/08/06 12:12:53;;;;;;;0.00;0.00;;;25.40;66.60;;;;;;10497192;28;20044;-61
2022/08/06 12:17:58;;;;;;;0.65;0.00;;;25.30;68.20;;;;;;10498180;28;20109;-61
2022/08/06 12:23:23;;;;;;;0.08;0.00;;;25.60;67.50;;;;;;10500375;28;20101;-61
2022/08/06 12:28:45;;;;;;;3.03;0.00;;;25.80;65.10;;;;;;10492623;28;20110;-61
2022/08/06 12:33:46;;;;;;;0.32;0.00;;;26.10;64.30;;;;;;10499608;28;20044;-61
2022/08/06 12:38:56;;;;;;;0.20;0.00;;;25.60;60.20;;;;;;10501741;28;20052;-62
2022/08/06 12:44:00;;;;;;;0.00;0.00;;;25.60;62.10;;;;;;10498014;28;20101;-61
2022/08/06 12:49:03;;;;;;;0.05;0.00;;;25.80;62.30;;;;;;10498544;28;20063;-62
2022/08/06 12:54:07;;;;;;;0.00;0.00;;;25.90;63.40;;;;;;10494177;28;20048;-61
2022/08/06 12:59:11;;;;;;;0.40;0.00;;;26.20;60.20;;;;;;10495182;28;20461;-62
2022/08/06 13:04:26;;;;;;;;;;;26.10;58.30;;;;;;10497027;28;20433;-62
2022/08/06 13:09:32;;;;;;;0.30;0.00;;;26.00;60.10;;;;;;10495200;28;19973;-62
2022/08/06 13:14:59;;;;;;;0.63;0.00;;;26.20;59.70;;;;;;10492601;28;20052;-61
2022/08/06 13:20:21;;;;;;;0.50;0.00;;;26.40;58.40;;;;;;10496234;28;20117;-61
2022/08/06 13:25:45;;;;;;;0.55;0.00;;;26.40;58.90;;;;;;10501128;28;20067;-62
2022/08/06 13:30:53;;;;;;;0.00;0.00;;;26.50;56.50;;;;;;10496312;28;20467;-62
2022/08/06 13:36:07;;;;;;;0.00;0.00;;;26.90;58.50;;;;;;10492878;28;20056;-61
2022/08/06 13:41:27;;;;;;;0.00;0.00;;;27.10;56.70;;;;;;10494240;28;20045;-62
2022/08/06 13:46:30;;;;;;;0.17;0.00;;;26.90;56.50;;;;;;10493067;28;20517;-62
2022/08/06 13:51:35;;;;;;;0.22;0.00;;;27.50;55.60;;;;;;10495377;28;20056;-62
2022/08/06 13:56:36;;;;;;;0.05;0.00;;;28.00;55.60;;;;;;10493378;28;20048;-62
2022/08/06 14:01:38;;;;;;;0.40;0.08;;;28.00;53.50;;;;;;10491835;28;20044;-63
2022/08/06 14:06:50;;;;;;;0.10;0.00;;;28.00;54.70;;;;;;10494618;28;20052;-62
2022/08/06 14:12:00;;;;;;;0.70;0.05;;;27.80;55.00;;;;;;10500211;28;20037;-62
2022/08/06 14:17:04;;;;;;;0.00;0.00;;;28.30;53.20;;;;;;10491833;28;20517;-62
2022/08/06 14:22:07;;;;;;;1.40;0.00;;;28.40;52.40;;;;;;10493288;28;20079;-62
2022/08/06 14:27:10;;;;;;;1.00;0.00;;;28.70;52.30;;;;;;10493631;28;20051;-62
2022/08/06 14:32:16;;;;;;;0.25;0.00;;;29.00;51.70;;;;;;10493000;28;20043;-62
2022/08/06 14:37:18;;;;;;;0.95;0.00;;;29.40;51.00;;;;;;10496640;28;20046;-62
2022/08/06 14:47:49;;;;;;;0.10;0.10;;;29.60;51.50;;;;;;10486956;28;20419;-62
2022/08/06 14:52:59;;;;;;;0.00;0.00;;;29.70;51.50;;;;;;10493189;28;20052;-62
2022/08/06 14:58:03;;;;;;;6.43;0.00;;;29.40;50.30;;;;;;10493771;28;20090;-62
2022/08/06 15:03:10;;;;;;;1.33;0.00;;;29.50;50.10;;;;;;10492929;28;20052;-62
2022/08/06 15:08:14;;;;;;;0.47;0.10;;;29.90;50.70;;;;;;10491803;28;20040;-62
2022/08/06 15:13:16;;;;;;;0.35;0.00;;;30.10;50.20;;;;;;10496671;28;20052;-62
2022/08/06 15:18:20;;;;;;;0.15;0.00;;;30.20;49.50;;;;;;10500805;28;20052;-62
2022/08/06 15:23:44;;;;;;;0.17;0.00;;;30.30;49.10;;;;;;10497922;28;20479;-62
2022/08/06 15:28:55;;;;;;;0.20;0.00;;;30.00;48.90;;;;;;10498963;28;20052;-62
2022/08/06 15:33:57;;;;;;;0.00;0.00;;;29.80;49.60;;;;;;10501806;28;20056;-62
2022/08/06 15:39:07;;;;;;;0.00;0.00;;;29.10;49.10;;;;;;10499900;28;20442;-62
2022/08/06 15:44:10;;;;;;;0.10;0.00;;;29.10;48.60;;;;;;10498875;28;20036;-62
2022/08/06 15:49:13;;;;;;;2.72;0.00;;;29.00;49.10;;;;;;10507997;28;20133;-61
2022/08/06 15:54:26;;;;;;;0.98;0.43;;;29.20;50.60;;;;;;10486584;28;20542;-61
2022/08/06 15:59:28;;;;;;;0.68;0.10;;;28.40;50.00;;;;;;10497067;28;20084;-61
2022/08/06 16:04:50;;;;;;;0.68;0.00;;;28.50;50.00;;;;;;10497439;28;20486;-61
2022/08/06 16:09:52;;;;;;;0.00;0.00;;;28.50;50.10;;;;;;10500977;28;20052;-62
2022/08/06 16:15:05;;;;;;;1.15;0.10;;;28.50;51.20;;;;;;10500682;28;20040;-62
2022/08/06 16:20:10;;;;;;;0.80;0.00;;;28.70;50.50;;;;;;10499113;28;20102;-63
2022/08/06 16:25:21;;;;;;;0.00;0.00;;;28.70;50.80;;;;;;10499769;28;20082;-63
2022/08/06 16:30:24;;;;;;;1.17;0.00;;;28.10;49.90;;;;;;10494457;28;20044;-62
2022/08/06 16:35:26;;;;;;;1.55;0.00;;;28.60;52.00;;;;;;10496917;28;20048;-62
2022/08/06 16:40:33;;;;;;;0.90;0.00;;;28.30;51.50;;;;;;10501930;28;20375;-63
2022/08/06 16:45:36;;;;;;;0.10;0.00;;;28.10;50.80;;;;;;10499232;28;20063;-64
2022/08/06 16:50:39;;;;;;;1.30;0.00;;;28.20;50.80;;;;;;10493824;28;20164;-64
2022/08/06 16:55:42;;;;;;;0.30;0.00;;;27.60;50.90;;;;;;10499297;28;20446;-64
2022/08/06 17:00:49;;;;;;;0.98;0.00;;;27.20;50.80;;;;;;10499679;28;20693;-64
2022/08/06 17:06:12;;;;;;;0.15;0.03;;;27.00;51.40;;;;;;10495320;28;20049;-64
2022/08/06 17:11:18;;;;;;;0.55;0.10;;;26.90;51.40;;;;;;10494511;28;20101;-64
2022/08/06 17:16:41;;;;;;;1.13;0.13;;;27.20;51.80;;;;;;10493732;28;20105;-64
2022/08/06 17:21:45;;;;;;;2.77;0.53;;;27.00;52.10;;;;;;10503513;28;20044;-64
2022/08/06 17:27:00;;;;;;;0.93;0.20;;;26.80;52.00;;;;;;10496631;28;20059;-64
2022/08/06 17:32:05;;;;;;;0.40;0.00;;;26.70;52.20;;;;;;10494881;28;20049;-64
2022/08/06 17:37:26;;;;;;;0.52;0.20;;;26.50;52.40;;;;;;10489853;28;20144;-64
2022/08/06 17:42:45;;;;;;;1.80;0.10;;;26.50;53.70;;;;;;10495679;28;20046;-64
2022/08/06 17:47:49;;;;;;;0.08;0.00;;;26.40;52.70;;;;;;10494886;28;20048;-64
2022/08/06 17:52:53;;;;;;;0.00;0.00;;;26.50;52.80;;;;;;10492556;28;20078;-64
2022/08/06 17:57:55;;;;;;;0.00;0.00;;;26.50;52.90;;;;;;10502063;28;20061;-62
2022/08/06 18:03:17;;;;;;;3.28;0.30;;;26.20;53.20;;;;;;10492550;28;20113;-62
2022/08/06 18:08:39;;;;;;;0.30;0.20;;;25.70;54.00;;;;;;10497793;28;20325;-63
2022/08/06 18:13:51;;;;;;;2.55;0.80;;;24.90;54.90;;;;;;10498446;28;20469;-62
2022/08/06 18:18:56;;;;;;;5.85;2.33;;;24.60;56.10;;;;;;10493916;28;20052;-62
2022/08/06 18:23:58;;;;;;;6.35;2.20;;;24.00;56.80;;;;;;10493227;28;20227;-62
2022/08/06 18:29:03;;;;;;;0.63;0.20;;;23.70;57.80;;;;;;10495379;28;20048;-63
2022/08/06 18:34:07;;;;;;;0.70;0.40;;;23.30;58.50;;;;;;10489923;28;20044;-64
2022/08/06 18:39:19;;;;;;;2.05;0.60;;;23.10;59.40;;;;;;10498684;28;20059;-64
2022/08/06 18:44:41;;;;;;;1.00;0.50;;;22.80;60.00;;;;;;10492872;28;20083;-65
2022/08/06 18:49:46;;;;;;;0.88;0.10;;;22.50;60.40;;;;;;10492344;28;20509;-64
2022/08/06 18:54:54;;;;;;;1.80;0.10;;;22.30;61.30;;;;;;10498200;28;20048;-63
2022/08/06 18:59:57;;;;;;;1.03;0.00;;;22.00;61.60;;;;;;10492070;28;20102;-63
2022/08/06 19:05:00;;;;;;;0.85;0.20;;;21.80;62.10;;;;;;10492835;28;20590;-59
2022/08/06 19:10:03;;;;;;;2.63;0.52;;;21.60;62.90;;;;;;10489406;28;20509;-59
2022/08/06 19:15:15;;;;;;;1.15;0.20;;;21.40;63.30;;;;;;10489754;28;20410;-58
2022/08/06 19:20:25;;;;;;;0.28;0.00;;;21.20;63.90;;;;;;10491330;28;20064;-59
2022/08/06 19:25:31;;;;;;;0.05;0.00;;;21.00;64.30;;;;;;10488527;28;20118;-59
2022/08/06 19:30:53;;;;;;;0.28;0.00;;;20.80;64.70;;;;;;10492778;28;20425;-59
2022/08/06 19:35:55;;;;;;;3.20;0.10;;;20.60;65.10;;;;;;10491473;28;20059;-59
2022/08/06 19:41:08;;;;;;;0.55;0.00;;;20.50;65.60;;;;;;10493363;28;20036;-59
2022/08/06 19:46:10;;;;;;;0.65;0.10;;;20.30;66.00;;;;;;10491543;28;20572;-59
2022/08/06 19:51:32;;;;;;;0.17;0.00;;;20.20;66.50;;;;;;10491242;28;20044;-59
2022/08/06 19:56:54;;;;;;;0.57;0.00;;;20.00;66.90;;;;;;10495012;28;20119;-62
2022/08/06 20:01:57;;;;;;;0.13;0.10;;;19.90;67.40;;;;;;10503355;28;20052;-60
2022/08/06 20:07:15;;;;;;;0.80;0.00;;;19.80;67.80;;;;;;10498769;28;20059;-61
2022/08/06 20:12:26;;;;;;;3.25;0.10;;;19.70;68.30;;;;;;10501635;28;20047;-59
2022/08/06 20:17:33;;;;;;;0.38;0.10;;;19.60;68.60;;;;;;10503960;28;20071;-60
2022/08/06 20:22:50;;;;;;;0.00;0.00;;;19.50;68.90;;;;;;10495190;28;20054;-57
2022/08/06 20:27:57;;;;;;;0.03;0.00;;;19.40;69.30;;;;;;10498730;28;20075;-58
2022/08/06 20:33:24;;;;;;;0.50;0.00;;;19.30;69.80;;;;;;10496106;28;20076;-58
2022/08/06 20:38:26;;;;;;;1.38;0.00;;;19.30;70.20;;;;;;10500370;28;20482;-59
2022/08/06 20:43:40;;;;;;;1.38;0.10;;;19.20;70.90;;;;;;10498961;28;20052;-59
2022/08/06 20:49:03;;;;;;;0.70;0.05;;;19.20;71.30;;;;;;10494454;28;20048;-59
2022/08/06 20:54:10;;;;;;;2.38;0.00;;;19.10;71.70;;;;;;10500861;28;20056;-58
2022/08/06 20:59:19;;;;;;;0.28;0.00;;;19.00;72.00;;;;;;10498019;28;20072;-59
2022/08/06 21:04:20;;;;;;;0.10;0.00;;;18.90;72.30;;;;;;10500227;28;20048;-58
2022/08/06 21:09:42;;;;;;;0.10;0.03;;;18.90;72.70;;;;;;10492854;28;20086;-58
2022/08/06 21:14:49;;;;;;;0.20;0.10;;;18.80;73.10;;;;;;10497933;28;20044;-58
2022/08/06 21:19:51;;;;;;;1.48;0.00;;;18.70;73.60;;;;;;10496424;28;20075;-58
2022/08/06 21:25:13;;;;;;;0.73;0.00;;;18.70;74.00;;;;;;10513816;28;20490;-57
2022/08/06 21:30:18;;;;;;;0.17;0.03;;;18.60;74.40;;;;;;10496389;28;20052;-56
2022/08/06 21:35:31;;;;;;;0.25;0.00;;;18.50;74.60;;;;;;10491167;28;20048;-59
2022/08/06 21:40:34;;;;;;;0.17;0.00;;;18.50;74.90;;;;;;10496747;28;20097;-58
2022/08/06 21:45:36;;;;;;;0.85;0.08;;;18.40;75.30;;;;;;10493714;28;20110;-58
2022/08/06 21:50:58;;;;;;;1.45;0.00;;;18.30;75.80;;;;;;10494221;28;20137;-58
2022/08/06 21:56:01;;;;;;;0.20;0.00;;;18.30;76.10;;;;;;10488229;28;20044;-57
2022/08/06 22:01:24;;;;;;;0.55;0.03;;;18.20;76.60;;;;;;10488084;28;20474;-59
2022/08/06 22:06:45;;;;;;;1.10;0.00;;;18.20;76.80;;;;;;10490359;28;20079;-58
2022/08/06 22:11:53;;;;;;;0.10;0.10;;;18.10;77.10;;;;;;10493886;28;20052;-58
2022/08/06 22:17:15;;;;;;;0.30;0.00;;;18.10;77.70;;;;;;10496335;28;20117;-59
2022/08/06 22:22:37;;;;;;;1.08;0.00;;;18.00;77.90;;;;;;10494381;28;20060;-58
2022/08/06 22:27:39;;;;;;;0.00;0.00;;;18.00;78.20;;;;;;10498829;28;20075;-58
2022/08/06 22:32:50;;;;;;;0.10;0.10;;;17.90;78.50;;;;;;10489923;28;20134;-57
2022/08/06 22:37:51;;;;;;;0.63;0.10;;;17.90;79.00;;;;;;10496786;28;20064;-57
2022/08/06 22:43:14;;;;;;;0.10;0.00;;;17.80;79.20;;;;;;10489589;28;20079;-58
2022/08/06 22:48:20;;;;;;;2.20;0.00;;;17.80;79.50;;;;;;10507444;28;20673;-59
2022/08/06 22:53:38;;;;;;;0.22;0.00;;;17.80;79.80;;;;;;10491147;28;20052;-57
2022/08/06 22:58:59;;;;;;;1.65;0.10;;;17.70;80.10;;;;;;10490907;28;20044;-58
2022/08/06 23:04:14;;;;;;;0.10;0.00;;;17.60;80.40;;;;;;10495375;28;20041;-58
2022/08/06 23:09:17;;;;;;;0.00;0.00;;;17.60;80.80;;;;;;10488303;28;20105;-57
2022/08/06 23:14:18;;;;;;;0.00;0.00;;;17.50;81.20;;;;;;10495446;28;20101;-57
2022/08/06 23:19:28;;;;;;;0.20;0.10;;;17.50;81.50;;;;;;10493100;28;20519;-57
2022/08/06 23:24:34;;;;;;;2.28;0.00;;;17.40;81.90;;;;;;10492217;28;20486;-57
2022/08/06 23:29:38;;;;;;;0.10;0.10;;;17.40;82.20;;;;;;10494260;28;20048;-59
2022/08/06 23:35:00;;;;;;;0.00;0.00;;;17.30;82.70;;;;;;10496359;28;20548;-58
2022/08/06 23:40:09;;;;;;;0.17;0.00;;;17.20;83.10;;;;;;10498998;28;20063;-59
2022/08/06 23:45:19;;;;;;;1.75;0.10;;;17.20;83.50;;;;;;10499378;28;20039;-58
2022/08/06 23:50:21;;;;;;;1.13;0.00;;;17.10;84.00;;;;;;10496319;28;20079;-58
2022/08/06 23:55:35;;;;;;;0.00;0.00;;;17.10;84.40;;;;;;10498697;28;20087;-57
